Time;durP1;ratioP1;P1;durP2;ratioP2;P2;SDS_P1;SDS_P2;PMS_P1;PMS_P2;Temp;Humidity;BMP_temperature;BMP_pressure;BME280_temperature;BME280_humidity;BME280_pressure;Samples;Min_cycle;Max_cycle;Signal;HPM_P1;HPM_P2
2023/12/05 00:00:19;;;;;;;;;26.25;21.50;;;;;-0.18;44.45;99465.97;5132098;27;8862;-80
2023/12/05 00:03:08;;;;;;;;;22.00;20.75;;;;;-0.08;44.14;99465.34;5115660;27;8946;-81
2023/12/05 00:05:37;;;;;;;;;25.00;22.75;;;;;-0.16;44.09;99459.16;5133257;27;8831;-79
2023/12/05 00:08:06;;;;;;;;;26.50;26.00;;;;;-0.15;44.02;99454.00;5132856;27;8839;-79
2023/12/05 00:10:35;;;;;;;;;28.50;24.50;;;;;-0.08;44.29;99462.75;5133408;27;8945;-79
2023/12/05 00:13:07;;;;;;;;;34.25;31.00;;;;;-0.25;44.61;99458.97;5131579;27;8834;-80
2023/12/05 00:15:36;;;;;;;;;28.75;28.75;;;;;-0.15;44.50;99466.06;5114318;27;8854;-80
2023/12/05 00:18:05;;;;;;;;;25.25;22.25;;;;;-0.17;44.29;99454.81;5096862;27;8846;-80
2023/12/05 00:20:35;;;;;;;;;25.75;24.00;;;;;-0.17;44.63;99458.25;5132583;27;8862;-80
2023/12/05 00:23:04;;;;;;;;;28.50;26.50;;;;;0.01;44.52;99457.78;5078592;27;8854;-80
2023/12/05 00:25:32;;;;;;;;;33.25;26.25;;;;;-0.02;44.39;99460.28;5131641;27;8845;-80
2023/12/05 00:28:01;;;;;;;;;26.25;23.50;;;;;0.02;44.27;99462.09;5091770;28;8869;-80
2023/12/05 00:30:32;;;;;;;;;25.75;25.75;;;;;0.07;44.31;99450.16;5108274;28;8839;-81
2023/12/05 00:33:00;;;;;;;;;27.25;25.25;;;;;0.05;44.62;99449.25;5091372;28;8987;-79
2023/12/05 00:35:31;;;;;;;;;25.25;25.25;;;;;0.10;44.46;99451.06;5107749;28;8835;-79
2023/12/05 00:38:00;;;;;;;;;24.25;24.25;;;;;0.14;44.52;99451.16;5091384;28;8847;-78
2023/12/05 00:40:29;;;;;;;;;26.75;26.75;;;;;0.03;44.57;99444.91;5030347;28;8858;-80
2023/12/05 00:42:58;;;;;;;;;25.00;25.00;;;;;0.01;44.58;99444.88;5047091;28;8988;-79
2023/12/05 00:45:28;;;;;;;;;28.50;25.50;;;;;0.08;44.73;99449.31;5014279;28;8834;-80
2023/12/05 00:47:58;;;;;;;;;29.00;25.75;;;;;0.10;44.95;99446.75;5010367;28;9120;-81
2023/12/05 00:50:27;;;;;;;;;24.50;23.25;;;;;0.14;45.01;99445.09;5010805;28;8970;-79
2023/12/05 00:53:05;;;;;;;;;26.25;25.75;;;;;0.08;44.94;99439.00;5011144;28;8860;-81
2023/12/05 00:55:35;;;;;;;;;30.50;25.75;;;;;0.16;45.09;99433.97;5011825;28;8840;-81
2023/12/05 00:58:04;;;;;;;;;28.75;27.00;;;;;0.19;45.28;99428.84;5011074;28;8884;-79
2023/12/05 01:00:33;;;;;;;;;30.75;28.00;;;;;0.23;45.36;99424.59;5029900;28;8861;-79
2023/12/05 01:03:04;;;;;;;;;28.75;26.25;;;;;0.20;44.90;99433.19;5047127;28;8858;-79
2023/12/05 01:05:34;;;;;;;;;33.50;32.00;;;;;0.18;45.47;99429.69;5046917;28;8862;-80
2023/12/05 01:08:03;;;;;;;;;25.50;23.50;;;;;0.16;45.47;99425.31;5047136;28;8858;-81
2023/12/05 01:10:33;;;;;;;;;31.75;27.50;;;;;0.33;45.37;99411.00;5031810;28;8882;-79
2023/12/05 01:13:02;;;;;;;;;30.00;25.00;;;;;0.30;45.36;99423.00;5071466;28;8912;-80
2023/12/05 01:15:31;;;;;;;;;31.75;27.00;;;;;0.29;45.58;99422.13;5062907;28;8888;-80
2023/12/05 01:17:59;;;;;;;;;25.25;24.00;;;;;0.35;45.22;99417.09;5052274;28;9629;-81
2023/12/05 01:20:31;;;;;;;;;27.75;23.25;;;;;0.50;45.19;99420.78;5070683;28;8871;-80
2023/12/05 01:22:59;;;;;;;;;27.75;26.25;;;;;0.59;45.18;99415.75;5082708;28;9734;-80
2023/12/05 01:25:29;;;;;;;;;27.75;26.25;;;;;0.60;44.92;99413.22;5056756;28;8833;-80
2023/12/05 01:27:58;;;;;;;;;27.00;25.50;;;;;0.65;44.90;99411.59;5069692;28;8850;-79
2023/12/05 01:30:27;;;;;;;;;30.75;28.50;;;;;0.81;44.52;99407.53;5086364;28;9645;-79
2023/12/05 01:32:56;;;;;;;;;22.25;22.25;;;;;0.75;44.76;99404.84;5086425;28;8860;-79
2023/12/05 01:35:26;;;;;;;;;24.25;23.00;;;;;0.91;44.42;99416.28;5070018;28;8981;-79
2023/12/05 01:37:57;;;;;;;;;31.75;27.75;;;;;1.02;44.33;99401.84;5037284;28;8967;-79
2023/12/05 01:40:27;;;;;;;;;25.00;21.75;;;;;1.02;44.31;99404.44;5054743;28;8860;-81
2023/12/05 01:42:56;;;;;;;;;26.25;20.50;;;;;1.19;43.99;99412.44;5052934;28;8938;-79
2023/12/05 01:45:26;;;;;;;;;30.50;28.25;;;;;1.09;44.40;99433.00;5067090;28;8964;-80
2023/12/05 01:47:55;;;;;;;;;32.25;28.75;;;;;1.20;44.02;99434.91;5016732;28;8885;-80
2023/12/05 01:50:29;;;;;;;;;30.75;24.75;;;;;1.39;44.03;99438.66;5054824;28;8873;-79
2023/12/05 01:53:04;;;;;;;;;28.25;25.50;;;;;1.45;43.78;99435.28;5045905;28;8864;-80
2023/12/05 01:55:34;;;;;;;;;30.50;27.75;;;;;1.46;43.80;99434.41;5053113;28;8847;-82
2023/12/05 01:58:03;;;;;;;;;29.75;27.75;;;;;1.42;43.95;99427.47;5087140;28;8843;-81
2023/12/05 02:00:32;;;;;;;;;29.00;26.50;;;;;1.46;44.01;99430.97;5092241;28;8942;-80
2023/12/05 02:03:01;;;;;;;;;33.75;27.50;;;;;1.66;43.67;99433.84;5108892;28;9582;-79
2023/12/05 02:05:30;;;;;;;;;31.75;26.00;;;;;1.79;43.04;99438.34;5072413;28;8854;-79
2023/12/05 02:08:01;;;;;;;;;32.25;27.00;;;;;1.73;43.12;99436.53;5106367;28;8977;-80
2023/12/05 02:10:30;;;;;;;;;30.25;28.50;;;;;1.79;43.14;99433.16;5089112;28;9174;-78
2023/12/05 02:12:59;;;;;;;;;32.33;32.33;;;;;1.89;43.26;99428.94;5106439;27;8946;-81
2023/12/05 02:15:28;;;;;;;;;33.00;31.00;;;;;1.94;42.87;99422.97;5127885;27;8949;-79
2023/12/05 02:18:06;;;;;;;;;29.00;25.25;;;;;1.84;43.14;99410.72;5110685;27;9599;-79
2023/12/05 02:20:41;;;;;;;;;30.00;27.25;;;;;1.86;43.52;99411.63;5126628;27;8885;-80
2023/12/05 02:23:50;;;;;;;;;33.75;32.75;;;;;1.96;43.45;99404.84;5110624;27;8981;-80
2023/12/05 02:26:28;;;;;;;;;36.50;31.50;;;;;1.91;43.35;99411.69;5111363;27;8859;-79
2023/12/05 02:28:59;;;;;;;;;27.75;26.50;;;;;1.69;43.76;99395.88;5129386;27;9995;-80
2023/12/05 02:31:28;;;;;;;;;35.25;32.75;;;;;1.79;43.71;99397.72;5109619;27;8877;-79
2023/12/05 02:33:57;;;;;;;;;32.50;28.75;;;;;1.78;43.82;99383.00;5080523;27;8862;-80
2023/12/05 02:36:43;;;;;;;;;30.25;28.50;;;;;1.85;43.40;99393.47;5133736;27;8838;-78
2023/12/05 02:39:21;;;;;;;;;27.50;27.50;;;;;1.79;44.21;99402.06;5131904;27;8854;-79
2023/12/05 02:41:54;;;;;;;;;36.25;28.75;;;;;1.92;43.38;99400.44;5132073;27;8850;-79
2023/12/05 02:44:32;;;;;;;;;36.50;32.00;;;;;1.75;44.11;99397.69;5114931;27;8843;-79
2023/12/05 02:47:02;;;;;;;;;32.75;30.25;;;;;1.78;44.19;99390.78;5115090;27;8843;-80
2023/12/05 02:49:31;;;;;;;;;31.75;29.50;;;;;1.72;43.97;99388.13;5115276;27;8938;-80
2023/12/05 02:52:01;;;;;;;;;37.00;33.00;;;;;1.86;44.24;99384.84;5132098;27;8877;-80
2023/12/05 02:54:29;;;;;;;;;29.00;28.25;;;;;1.80;44.42;99383.91;5132214;27;8912;-80
2023/12/05 02:56:59;;;;;;;;;29.00;25.50;;;;;1.82;44.57;99384.81;5133953;27;8834;-80
2023/12/05 02:59:29;;;;;;;;;37.00;31.50;;;;;1.82;44.46;99377.03;5092600;28;8852;-78
2023/12/05 03:01:58;;;;;;;;;32.50;32.00;;;;;1.78;44.72;99371.78;5090947;28;8868;-79
2023/12/05 03:04:28;;;;;;;;;39.75;32.00;;;;;1.76;44.75;99382.13;5109936;27;8835;-79
2023/12/05 03:06:57;;;;;;;;;41.75;35.75;;;;;1.85;44.30;99386.56;5095190;27;8870;-79
2023/12/05 03:09:26;;;;;;;;;30.75;29.25;;;;;1.79;44.97;99383.91;5076438;28;9946;-81
2023/12/05 03:11:55;;;;;;;;;30.75;28.75;;;;;1.86;44.73;99371.88;5124390;27;8862;-79
2023/12/05 03:14:25;;;;;;;;;36.75;30.25;;;;;1.83;44.59;99383.09;5109421;28;8859;-81
2023/12/05 03:16:55;;;;;;;;;35.50;32.50;;;;;1.88;44.89;99373.66;5109108;28;8856;-79
2023/12/05 03:19:24;;;;;;;;;34.00;27.75;;;;;2.01;44.76;99372.94;5068516;28;8887;-79
2023/12/05 03:21:55;;;;;;;;;31.50;28.50;;;;;2.03;44.12;99375.53;5003245;28;8848;-79
2023/12/05 03:24:24;;;;;;;;;31.50;29.50;;;;;2.05;44.24;99360.00;5068894;28;8906;-80
2023/12/05 03:26:55;;;;;;;;;33.00;28.75;;;;;1.93;45.29;99368.50;5037179;28;8854;-81
2023/12/05 03:29:24;;;;;;;;;34.75;31.00;;;;;1.78;45.06;99357.09;5029656;28;8843;-80
2023/12/05 03:31:55;;;;;;;;;28.00;25.75;;;;;1.76;45.25;99360.53;5028834;28;8953;-80
2023/12/05 03:34:25;;;;;;;;;39.25;33.75;;;;;1.78;45.18;99357.09;4953173;28;8866;-80
2023/12/05 03:36:54;;;;;;;;;35.25;31.50;;;;;1.64;45.91;99362.13;4969814;28;8858;-80
2023/12/05 03:39:23;;;;;;;;;32.75;30.25;;;;;1.54;45.88;99355.09;4950512;28;8850;-81
2023/12/05 03:41:52;;;;;;;;;32.75;30.75;;;;;1.70;45.80;99371.69;4950714;28;8858;-79
2023/12/05 03:44:20;;;;;;;;;31.75;26.75;;;;;1.83;45.34;99367.53;4950069;28;8866;-80
2023/12/05 03:46:50;;;;;;;;;30.00;30.00;;;;;1.78;45.56;99370.06;4950699;28;8882;-81
2023/12/05 03:49:20;;;;;;;;;29.00;25.50;;;;;1.77;45.16;99362.28;4919211;28;8872;-80
2023/12/05 03:51:49;;;;;;;;;27.75;26.25;;;;;1.78;45.34;99364.00;4951080;28;8975;-80
2023/12/05 03:54:18;;;;;;;;;33.50;30.00;;;;;1.76;46.04;99363.13;4935201;28;8982;-80
2023/12/05 03:56:47;;;;;;;;;31.50;28.50;;;;;1.63;46.32;99360.41;4940302;28;8850;-80
2023/12/05 03:59:15;;;;;;;;;41.25;32.25;;;;;1.78;45.97;99356.25;5009794;28;8850;-79
2023/12/05 04:01:44;;;;;;;;;35.75;30.75;;;;;1.74;46.22;99347.56;4995319;28;8862;-80
2023/12/05 04:04:13;;;;;;;;;33.25;30.00;;;;;1.64;46.43;99353.50;5013872;28;8865;-83
2023/12/05 04:06:44;;;;;;;;;26.75;25.50;;;;;1.68;45.83;99357.84;5071674;28;8836;-80
2023/12/05 04:09:14;;;;;;;;;36.50;33.75;;;;;1.57;46.96;99355.13;5091498;28;8866;-81
2023/12/05 04:11:43;;;;;;;;;31.75;29.75;;;;;1.47;47.14;99358.47;5130960;27;8851;-79
2023/12/05 04:14:12;;;;;;;;;29.75;28.25;;;;;1.17;47.81;99354.59;5130156;27;8965;-81
2023/12/05 04:16:42;;;;;;;;;28.00;24.00;;;;;1.20;47.56;99357.25;5113398;27;8862;-79
2023/12/05 04:19:10;;;;;;;;;31.25;29.00;;;;;1.25;47.86;99362.47;5130242;27;8874;-79
2023/12/05 04:21:40;;;;;;;;;35.50;31.50;;;;;1.18;47.98;99358.94;5130098;27;8866;-80
2023/12/05 04:24:10;;;;;;;;;30.50;30.50;;;;;0.99;48.63;99359.50;5062944;28;8832;-79
2023/12/05 04:26:39;;;;;;;;;33.25;29.50;;;;;0.94;49.10;99363.75;5042262;28;8845;-81
2023/12/05 04:29:08;;;;;;;;;28.75;26.25;;;;;0.89;49.13;99366.25;5055483;28;8980;-79
2023/12/05 04:31:37;;;;;;;;;30.25;27.25;;;;;1.05;48.72;99362.22;5087871;28;8941;-79
2023/12/05 04:34:05;;;;;;;;;38.25;30.75;;;;;1.07;48.86;99368.28;5038474;28;9584;-79
2023/12/05 04:36:35;;;;;;;;;27.75;25.50;;;;;1.07;48.85;99378.63;5054348;28;8850;-80
2023/12/05 04:39:06;;;;;;;;;35.50;30.50;;;;;1.19;48.53;99368.44;5087231;28;9000;-81
2023/12/05 04:41:37;;;;;;;;;34.50;33.00;;;;;1.08;48.89;99369.13;5088764;28;9820;-79
2023/12/05 04:44:06;;;;;;;;;35.00;34.50;;;;;1.18;48.78;99360.66;5088835;28;8972;-81
2023/12/05 04:46:38;;;;;;;;;29.50;26.50;;;;;1.21;48.70;99358.09;5071128;28;8830;-80
2023/12/05 04:49:07;;;;;;;;;36.00;31.75;;;;;1.10;49.19;99355.34;5070937;28;8849;-80
2023/12/05 04:51:36;;;;;;;;;31.50;27.00;;;;;1.09;49.06;99364.00;5087969;28;8841;-82
2023/12/05 04:54:05;;;;;;;;;32.75;30.00;;;;;1.22;48.86;99360.72;5088469;28;8842;-80
2023/12/05 04:56:34;;;;;;;;;28.75;25.75;;;;;1.10;49.29;99362.25;5088954;28;8858;-79
2023/12/05 04:59:04;;;;;;;;;31.00;26.75;;;;;1.11;49.45;99364.88;5092749;28;9676;-80
2023/12/05 05:01:34;;;;;;;;;37.25;32.00;;;;;1.10;49.53;99373.47;5116802;27;8854;-79
2023/12/05 05:04:02;;;;;;;;;35.00;28.75;;;;;1.08;49.65;99356.19;5130287;27;8847;-81
2023/12/05 05:06:32;;;;;;;;;27.60;24.00;;;;;1.03;50.13;99363.88;5129635;27;8857;-81
2023/12/05 05:09:01;;;;;;;;;34.75;27.75;;;;;0.96;50.16;99365.53;5129583;27;8866;-80
2023/12/05 05:11:31;;;;;;;;;27.50;25.75;;;;;1.01;50.18;99375.94;5131182;27;8838;-80
2023/12/05 05:13:59;;;;;;;;;25.25;23.50;;;;;0.96;50.40;99367.25;5132373;27;8855;-79
2023/12/05 05:16:31;;;;;;;;;30.40;27.40;;;;;1.04;50.17;99378.56;5133865;27;8870;-79
2023/12/05 05:19:00;;;;;;;;;31.75;30.00;;;;;1.03;50.21;99380.31;5143609;27;8860;-79
2023/12/05 05:21:29;;;;;;;;;35.60;32.40;;;;;1.01;50.34;99381.09;5073297;28;8886;-80
2023/12/05 05:23:58;;;;;;;;;26.00;26.00;;;;;1.14;49.87;99377.00;5073350;28;8853;-79
2023/12/05 05:26:27;;;;;;;;;32.60;26.80;;;;;1.18;49.92;99381.34;5109864;28;8849;-80
2023/12/05 05:28:56;;;;;;;;;31.40;29.80;;;;;1.20;50.07;99387.41;5108289;28;8833;-80
2023/12/05 05:31:25;;;;;;;;;27.40;26.00;;;;;1.18;50.04;99387.44;5073912;28;8849;-80
2023/12/05 05:33:55;;;;;;;;;31.80;26.80;;;;;1.25;50.13;99384.06;5108454;28;8840;-80
2023/12/05 05:36:24;;;;;;;;;27.00;23.20;;;;;1.13;50.55;99376.13;5109526;28;8956;-82
2023/12/05 05:38:53;;;;;;;;;29.60;23.80;;;;;0.99;51.33;99369.88;5107960;28;8845;-79
2023/12/05 05:41:22;;;;;;;;;31.40;29.80;;;;;1.23;50.64;99372.81;5090865;28;8841;-79
2023/12/05 05:43:51;;;;;;;;;34.75;30.50;;;;;1.14;51.30;99379.56;5091215;28;8849;-81
2023/12/05 05:46:20;;;;;;;;;27.75;25.50;;;;;1.02;51.68;99375.09;5107817;28;8928;-79
2023/12/05 05:48:49;;;;;;;;;46.00;37.75;;;;;1.09;51.63;99376.03;5107659;28;8879;-80
2023/12/05 05:51:20;;;;;;;;;30.00;19.60;;;;;1.04;51.74;99368.22;5057419;28;8863;-80
2023/12/05 05:53:48;;;;;;;;;27.60;26.80;;;;;0.95;52.39;99375.81;5109262;28;9754;-80
2023/12/05 05:56:17;;;;;;;;;32.80;30.60;;;;;1.14;51.59;99380.44;5089716;28;9652;-79
2023/12/05 05:58:46;;;;;;;;;28.60;24.80;;;;;1.18;51.81;99389.13;5106969;28;8982;-81
2023/12/05 06:01:15;;;;;;;;;32.60;26.60;;;;;1.26;51.22;99390.13;5107699;28;8830;-81
2023/12/05 06:03:45;;;;;;;;;30.80;24.20;;;;;1.37;51.24;99392.84;5107808;28;8877;-81
2023/12/05 06:06:14;;;;;;;;;31.00;29.40;;;;;1.33;51.14;99396.25;5090012;28;8841;-80
2023/12/05 06:08:45;;;;;;;;;30.00;27.00;;;;;1.36;51.43;99404.06;5072608;28;8861;-79
2023/12/05 06:11:14;;;;;;;;;28.25;27.00;;;;;1.40;51.31;99398.94;5109128;28;8864;-79
2023/12/05 06:13:43;;;;;;;;;27.80;26.60;;;;;1.33;51.92;99398.84;5107780;28;8841;-80
2023/12/05 06:16:12;;;;;;;;;31.00;29.25;;;;;1.28;51.89;99392.75;5057366;28;8857;-80
2023/12/05 06:18:41;;;;;;;;;27.20;25.20;;;;;1.34;51.94;99390.22;5109120;28;8872;-81
2023/12/05 06:21:10;;;;;;;;;35.25;32.25;;;;;1.28;52.23;99375.47;5092431;27;8926;-79
2023/12/05 06:23:39;;;;;;;;;33.40;31.80;;;;;1.05;53.17;99370.84;5068401;28;8984;-81
2023/12/05 06:26:11;;;;;;;;;34.00;33.80;;;;;0.88;54.04;99379.16;5063809;28;8958;-80
2023/12/05 06:28:39;;;;;;;;;37.50;32.00;;;;;0.86;54.12;99384.31;5072487;28;8857;-81
2023/12/05 06:31:09;;;;;;;;;37.75;31.50;;;;;1.03;53.94;99379.41;5058226;28;8860;-79
2023/12/05 06:33:38;;;;;;;;;37.00;32.50;;;;;0.95;54.23;99389.66;5070282;28;8830;-80
2023/12/05 06:36:08;;;;;;;;;29.20;26.20;;;;;0.89;54.30;99386.94;5007602;28;8881;-80
2023/12/05 06:38:37;;;;;;;;;35.00;32.75;;;;;0.94;54.24;99374.94;5029789;28;8907;-81
2023/12/05 06:41:08;;;;;;;;;36.50;32.00;;;;;0.86;54.16;99373.97;5007744;28;8882;-80
2023/12/05 06:43:38;;;;;;;;;43.75;34.50;;;;;0.89;54.48;99373.13;5023948;28;9010;-82
2023/12/05 06:46:08;;;;;;;;;33.50;29.75;;;;;0.93;54.30;99364.56;5037417;28;8865;-82
2023/12/05 06:48:37;;;;;;;;;35.00;34.50;;;;;0.91;54.46;99363.69;5027699;28;8931;-79
2023/12/05 06:51:07;;;;;;;;;37.00;30.50;;;;;0.85;54.65;99365.31;5026298;28;8892;-80
2023/12/05 06:53:36;;;;;;;;;31.50;26.25;;;;;0.81;55.07;99349.72;5027567;28;8842;-80
2023/12/05 06:56:12;;;;;;;;;31.00;29.00;;;;;0.82;54.95;99361.81;5068450;28;9651;-80
2023/12/05 06:58:43;;;;;;;;;44.00;36.75;;;;;0.76;55.14;99370.34;5086889;28;8865;-80
2023/12/05 07:01:12;;;;;;;;;38.80;33.40;;;;;0.91;54.95;99361.09;5091089;28;8858;-80
2023/12/05 07:03:41;;;;;;;;;35.80;30.60;;;;;1.01;54.42;99368.16;5085620;28;8838;-80
2023/12/05 07:06:21;;;;;;;;;35.00;30.00;;;;;1.05;54.35;99375.16;5033555;28;8859;-79
2023/12/05 07:08:50;;;;;;;;;37.40;32.00;;;;;1.15;53.96;99363.22;5032379;28;8903;-79
2023/12/05 07:11:19;;;;;;;;;33.20;27.40;;;;;1.00;54.48;99359.53;5064764;28;8840;-80
2023/12/05 07:13:50;;;;;;;;;35.50;32.75;;;;;0.86;55.16;99348.09;5077593;27;8846;-80
2023/12/05 07:16:19;;;;;;;;;31.40;28.80;;;;;0.98;54.78;99347.44;5128642;27;9765;-80
2023/12/05 07:18:49;;;;;;;;;30.80;29.00;;;;;1.14;54.15;99338.16;5111476;27;8876;-82
2023/12/05 07:21:18;;;;;;;;;31.20;30.00;;;;;1.10;54.20;99337.25;5076200;27;1605831;-79
2023/12/05 07:23:47;;;;;;;;;32.50;25.50;;;;;1.27;53.58;99334.03;5152991;27;8849;-80
2023/12/05 07:26:28;;;;;;;;;35.75;29.25;;;;;1.28;53.79;99333.19;5129792;27;8829;-80
2023/12/05 07:28:58;;;;;;;;;36.00;31.00;;;;;1.44;53.25;99340.28;5131833;27;8945;-79
2023/12/05 07:31:28;;;;;;;;;39.25;31.75;;;;;1.43;53.74;99349.78;5095721;27;8857;-80
2023/12/05 07:33:58;;;;;;;;;32.75;29.00;;;;;1.44;53.24;99346.31;5130122;27;8853;-81
2023/12/05 07:36:27;;;;;;;;;37.00;30.60;;;;;1.47;53.30;99352.44;5111978;27;8857;-80
2023/12/05 07:38:57;;;;;;;;;31.60;27.80;;;;;1.49;53.50;99358.50;5112477;27;8950;-78
2023/12/05 07:41:26;;;;;;;;;17.75;13.50;;;;;1.36;53.56;99357.44;5112627;27;8853;-79
2023/12/05 07:43:55;;;;;;;;;32.75;31.50;;;;;1.53;53.67;99352.50;5079303;27;8857;-78
2023/12/05 07:46:26;;;;;;;;;43.25;37.50;;;;;1.50;53.71;99362.81;5111267;27;9605;-77
2023/12/05 07:48:54;;;;;;;;;34.40;28.60;;;;;1.64;53.57;99356.94;5061026;27;8986;-78
2023/12/05 07:51:23;;;;;;;;;33.40;31.40;;;;;1.68;53.05;99350.09;5110882;27;8951;-79
2023/12/05 07:53:53;;;;;;;;;33.60;32.20;;;;;1.85;52.55;99349.41;5113927;27;8861;-79
2023/12/05 07:56:22;;;;;;;;;35.00;30.80;;;;;1.80;52.90;99351.94;5077762;27;8831;-79
2023/12/05 07:58:51;;;;;;;;;32.00;24.40;;;;;1.92;52.03;99341.72;5115087;27;8879;-80
2023/12/05 08:01:20;;;;;;;;;40.40;36.00;;;;;1.89;52.38;99340.81;5118970;27;8837;-78
2023/12/05 08:03:51;;;;;;;;;36.50;35.25;;;;;1.80;52.75;99342.44;5099055;27;9583;-79
2023/12/05 08:06:20;;;;;;;;;37.25;34.00;;;;;1.94;52.71;99341.75;5133004;27;8856;-79
2023/12/05 08:08:50;;;;;;;;;38.25;35.75;;;;;2.07;51.89;99337.53;5116058;27;9630;-78
2023/12/05 08:11:21;;;;;;;;;25.40;23.60;;;;;2.17;51.99;99331.59;5082191;27;8859;-78
2023/12/05 08:13:50;;;;;;;;;44.75;38.00;;;;;2.25;51.51;99322.16;5132835;27;8949;-80
2023/12/05 08:16:19;;;;;;;;;36.20;35.60;;;;;2.33;51.59;99333.47;5150934;27;8867;-79
2023/12/05 08:18:48;;;;;;;;;33.60;30.80;;;;;2.30;51.83;99317.91;5132914;27;8841;-77
2023/12/05 08:21:19;;;;;;;;;55.50;45.75;;;;;2.60;51.53;99322.47;5151125;27;8861;-78
2023/12/05 08:23:47;;;;;;;;;70.25;56.75;;;;;2.64;50.98;99330.25;5133125;27;8913;-77
2023/12/05 08:26:17;;;;;;;;;53.00;43.75;;;;;2.63;50.96;99311.22;5151527;27;10106;-79
2023/12/05 08:28:45;;;;;;;;;39.50;36.00;;;;;2.54;51.37;99317.25;5133408;27;8862;-79
2023/12/05 08:31:14;;;;;;;;;35.80;33.20;;;;;2.57;50.51;99314.66;5149514;27;8844;-78
2023/12/05 08:33:43;;;;;;;;;38.20;35.60;;;;;2.71;50.81;99312.19;5119828;27;9593;-78
2023/12/05 08:36:13;;;;;;;;;37.00;33.75;;;;;2.73;50.94;99314.75;5151583;27;8992;-80
2023/12/05 08:38:43;;;;;;;;;42.00;35.20;;;;;2.77;50.85;99312.22;5132291;27;8870;-78
2023/12/05 08:41:18;;;;;;;;;39.75;35.25;;;;;2.72;50.79;99294.88;5133203;27;9668;-77
2023/12/05 08:43:46;;;;;;;;;36.20;33.60;;;;;2.76;50.56;99304.41;5150241;27;8859;-78
2023/12/05 08:46:16;;;;;;;;;29.50;28.75;;;;;2.76;50.51;99302.69;5154755;27;8926;-80
2023/12/05 08:48:45;;;;;;;;;38.25;33.75;;;;;2.87;50.52;99304.50;5116325;27;8855;-78
2023/12/05 08:51:14;;;;;;;;;33.40;32.00;;;;;2.81;51.13;99302.72;5152155;27;8923;-78
2023/12/05 08:53:45;;;;;;;;;39.75;38.00;;;;;2.86;50.49;99297.56;5133069;27;8947;-79
2023/12/05 08:56:14;;;;;;;;;36.80;36.80;;;;;2.90;50.56;99299.31;5095634;27;8956;-79
2023/12/05 08:58:43;;;;;;;;;34.40;33.00;;;;;2.99;49.85;99310.59;5132180;27;8913;-79
2023/12/05 09:01:12;;;;;;;;;39.40;36.20;;;;;2.90;50.39;99315.78;5150134;27;8853;-79
2023/12/05 09:03:41;;;;;;;;;41.75;38.75;;;;;2.95;50.92;99297.59;5132057;27;8915;-79
2023/12/05 09:06:11;;;;;;;;;35.00;33.25;;;;;2.90;51.07;99292.41;5150818;27;8881;-78
2023/12/05 09:08:40;;;;;;;;;41.25;34.75;;;;;3.17;50.33;99288.22;5101424;27;8892;-78
2023/12/05 09:11:13;;;;;;;;;26.20;23.60;;;;;3.06;50.32;99300.28;5146537;27;9002;-78
2023/12/05 09:13:41;;;;;;;;;35.00;26.80;;;;;3.05;50.63;99289.00;5131943;27;8857;-78
2023/12/05 09:16:10;;;;;;;;;38.20;33.80;;;;;3.14;50.74;99285.59;5131241;27;8872;-78
2023/12/05 09:18:39;;;;;;;;;33.00;31.25;;;;;3.25;50.32;99288.25;5132364;27;8869;-78
2023/12/05 09:21:09;;;;;;;;;43.50;37.00;;;;;3.19;51.09;99289.09;5150688;27;8881;-77
2023/12/05 09:23:38;;;;;;;;;27.50;23.25;;;;;3.25;50.42;99265.72;5150102;27;8849;-76
2023/12/05 09:26:08;;;;;;;;;40.20;35.60;;;;;3.38;50.86;99272.72;5063638;27;9646;-79
2023/12/05 09:28:38;;;;;;;;;44.25;36.50;;;;;3.29;51.04;99254.50;5150370;27;8933;-78
2023/12/05 09:31:07;;;;;;;;;38.60;33.20;;;;;3.38;50.74;99256.28;5080615;27;8964;-78
2023/12/05 09:33:36;;;;;;;;;38.50;32.00;;;;;3.49;50.78;99258.94;5131729;27;8841;-79
2023/12/05 09:36:05;;;;;;;;;37.75;31.75;;;;;3.49;49.98;99245.94;5150187;27;8879;-78
2023/12/05 09:38:35;;;;;;;;;36.80;31.80;;;;;3.54;50.41;99245.09;5150272;27;8861;-77
2023/12/05 09:41:05;;;;;;;;;31.50;31.50;;;;;3.68;50.26;99242.53;5131467;27;8856;-77
2023/12/05 09:43:40;;;;;;;;;35.00;30.40;;;;;3.92;49.43;99246.00;5132280;27;8860;-78
2023/12/05 09:46:11;;;;;;;;;39.25;34.00;;;;;4.10;48.68;99240.84;5131768;27;8926;-78
2023/12/05 09:48:47;;;;;;;;;32.20;31.40;;;;;4.05;48.81;99232.16;5126853;27;8837;-78
2023/12/05 09:51:16;;;;;;;;;35.20;32.00;;;;;4.00;49.12;99225.22;5092822;27;9704;-78
2023/12/05 09:53:46;;;;;;;;;34.80;32.00;;;;;4.05;48.76;99233.91;5126492;27;8853;-77
2023/12/05 09:56:15;;;;;;;;;39.40;36.80;;;;;4.28;48.21;99233.91;5126647;27;8857;-78
2023/12/05 09:58:46;;;;;;;;;35.20;31.40;;;;;4.35;48.02;99225.22;5126565;27;8980;-78
2023/12/05 10:01:16;;;;;;;;;35.40;33.60;;;;;4.38;48.33;99227.84;5126504;27;9622;-77
2023/12/05 10:03:45;;;;;;;;;34.60;32.80;;;;;4.52;47.68;99225.22;5109699;27;9599;-78
2023/12/05 10:06:17;;;;;;;;;37.20;34.00;;;;;4.57;47.35;99226.94;5126332;27;10122;-78
2023/12/05 10:08:51;;;;;;;;;37.60;35.60;;;;;4.61;47.22;99208.72;5109318;27;8861;-78
2023/12/05 10:11:22;;;;;;;;;39.20;33.00;;;;;4.57;47.24;99200.91;5109507;27;9563;-77
2023/12/05 10:13:53;;;;;;;;;41.40;37.60;;;;;4.65;47.00;99203.47;5068939;28;8834;-78
2023/12/05 10:16:23;;;;;;;;;41.25;36.25;;;;;4.81;46.81;99198.22;5069055;28;8840;-76
2023/12/05 10:18:52;;;;;;;;;34.20;32.20;;;;;4.88;46.69;99193.00;5086946;28;8859;-78
2023/12/05 10:21:22;;;;;;;;;40.00;34.40;;;;;4.72;46.52;99173.97;5106144;28;8841;-78
2023/12/05 10:23:52;;;;;;;;;43.75;34.50;;;;;4.74;46.65;99176.56;5106004;28;8895;-77
2023/12/05 10:26:21;;;;;;;;;40.75;37.75;;;;;4.97;46.31;99183.44;5105946;28;8853;-77
2023/12/05 10:28:53;;;;;;;;;36.60;31.00;;;;;4.85;46.39;99166.97;5106281;28;8845;-77
2023/12/05 10:31:22;;;;;;;;;36.80;31.80;;;;;5.01;46.24;99172.97;5094970;28;8959;-78
2023/12/05 10:33:51;;;;;;;;;43.25;37.50;;;;;5.05;45.89;99172.09;5106973;28;8958;-77
2023/12/05 10:36:20;;;;;;;;;42.25;39.50;;;;;5.09;45.82;99183.38;5105732;28;8844;-78
2023/12/05 10:38:49;;;;;;;;;33.50;31.50;;;;;5.33;45.26;99190.25;5105777;28;8832;-76
2023/12/05 10:41:23;;;;;;;;;39.00;32.00;;;;;5.41;45.04;99193.66;5055716;28;8851;-78
2023/12/05 10:43:55;;;;;;;;;38.20;35.00;;;;;5.46;44.89;99188.44;5089487;27;8863;-78
2023/12/05 10:46:26;;;;;;;;;39.80;36.60;;;;;5.50;44.90;99169.28;5098139;27;8840;-78
2023/12/05 10:48:55;;;;;;;;;41.00;36.60;;;;;5.25;45.37;99178.97;5131502;27;8864;-77
2023/12/05 10:51:28;;;;;;;;;43.00;38.50;;;;;5.15;45.66;99173.78;5113486;27;8845;-79
2023/12/05 10:53:57;;;;;;;;;33.20;32.20;;;;;5.11;45.94;99176.41;5132679;27;8991;-77
2023/12/05 10:56:28;;;;;;;;;38.25;36.75;;;;;4.92;46.18;99176.50;5118208;27;8861;-76
2023/12/05 10:59:00;;;;;;;;;44.75;38.50;;;;;5.17;45.73;99170.31;5135018;27;9016;-77
2023/12/05 11:01:29;;;;;;;;;40.75;36.00;;;;;5.25;45.63;99169.41;5092351;28;8847;-78
2023/12/05 11:04:02;;;;;;;;;39.50;35.75;;;;;5.30;45.90;99170.28;5075879;28;8840;-78
2023/12/05 11:06:32;;;;;;;;;37.60;35.00;;;;;5.31;45.56;99174.59;5076620;28;8847;-77
2023/12/05 11:09:01;;;;;;;;;45.80;36.80;;;;;5.26;45.64;99168.50;5076284;28;8955;-77
2023/12/05 11:11:32;;;;;;;;;35.60;34.00;;;;;5.38;45.60;99166.75;5075813;28;8880;-77
2023/12/05 11:14:03;;;;;;;;;43.75;37.50;;;;;5.49;45.44;99180.56;5109575;28;8843;-78
2023/12/05 11:16:39;;;;;;;;;37.80;36.40;;;;;5.58;45.50;99170.09;5109381;28;9060;-78
2023/12/05 11:19:19;;;;;;;;;42.60;39.80;;;;;5.48;45.87;99179.72;5092047;28;8863;-78
2023/12/05 11:22:01;;;;;;;;;41.80;36.60;;;;;5.65;45.06;99179.63;5091953;28;8994;-77
2023/12/05 11:24:49;;;;;;;;;40.40;35.60;;;;;5.78;45.37;99171.72;5109404;28;8824;-78
2023/12/05 11:27:41;;;;;;;;;40.00;36.20;;;;;5.64;45.47;99174.41;5092307;28;8836;-78
2023/12/05 11:30:37;;;;;;;;;29.40;27.00;;;;;5.76;45.21;99176.94;5088830;28;8853;-79
2023/12/05 11:33:21;;;;;;;;;39.80;35.80;;;;;5.73;45.06;99179.56;5028224;28;8856;-77
2023/12/05 11:36:06;;;;;;;;;34.00;31.00;;;;;5.74;45.54;99178.69;5028483;28;8860;-76
2023/12/05 11:38:35;;;;;;;;;39.60;36.80;;;;;5.75;45.07;99167.38;5028003;28;8959;-77
2023/12/05 11:41:14;;;;;;;;;32.80;28.00;;;;;5.84;44.96;99167.31;4996040;28;8828;-79
2023/12/05 11:43:43;;;;;;;;;43.80;36.60;;;;;6.02;44.74;99162.81;5028201;28;8836;-76
2023/12/05 11:46:18;;;;;;;;;36.80;33.60;;;;;5.97;44.94;99152.41;5011645;28;8890;-78
2023/12/05 11:48:47;;;;;;;;;40.80;37.00;;;;;5.82;44.93;99155.16;5011480;28;9057;-77